createdAt,value
2023-03-19T00:00:42.437Z,10.70
2023-03-19T00:03:10.562Z,10.60
2023-03-19T00:05:38.698Z,10.70
2023-03-19T00:08:07.011Z,10.80
2023-03-19T00:10:38.978Z,10.70
2023-03-19T00:13:10.052Z,10.50
2023-03-19T00:15:38.906Z,10.50
2023-03-19T00:18:07.627Z,10.30
2023-03-19T00:20:36.357Z,10.20
2023-03-19T00:23:04.485Z,10.30
2023-03-19T00:25:33.722Z,10.10
2023-03-19T00:28:02.010Z,10.10
2023-03-19T00:30:31.564Z,10.00
2023-03-19T00:32:59.681Z,10.00
2023-03-19T00:35:28.385Z,10.00
2023-03-19T00:37:56.484Z,9.90
2023-03-19T00:40:24.542Z,9.90
2023-03-19T00:42:52.652Z,9.80
2023-03-19T00:45:20.755Z,9.80
2023-03-19T00:47:51.026Z,9.80
2023-03-19T00:50:19.476Z,9.70
2023-03-19T00:52:47.605Z,9.90
2023-03-19T00:55:15.656Z,9.90
2023-03-19T00:57:43.933Z,9.90
2023-03-19T01:02:41.975Z,9.70
2023-03-19T01:05:11.533Z,9.60
2023-03-19T01:07:40.830Z,9.60
2023-03-19T01:10:11.632Z,9.60
2023-03-19T01:12:39.754Z,9.60
2023-03-19T01:15:09.312Z,9.60
2023-03-19T01:17:38.104Z,9.70
2023-03-19T01:20:08.995Z,9.60
2023-03-19T01:22:38.585Z,9.50
2023-03-19T01:25:08.030Z,9.40
2023-03-19T01:27:37.322Z,9.30
2023-03-19T01:30:07.589Z,9.30
2023-03-19T01:32:58.894Z,9.30
2023-03-19T01:35:47.966Z,9.30
2023-03-19T01:38:18.296Z,9.20
2023-03-19T01:40:47.402Z,9.20
2023-03-19T01:43:19.352Z,9.20
2023-03-19T01:45:56.230Z,9.10
2023-03-19T01:49:06.323Z,9.20
2023-03-19T01:51:40.664Z,9.10
2023-03-19T01:54:29.542Z,9.20
2023-03-19T01:57:15.777Z,9.10
2023-03-19T02:00:05.425Z,9.20
2023-03-19T02:02:48.311Z,9.10
2023-03-19T02:05:42.333Z,9.20
2023-03-19T02:08:15.783Z,9.10
2023-03-19T02:10:47.228Z,9.10
2023-03-19T02:13:15.826Z,9.10
2023-03-19T02:15:44.194Z,9.00
2023-03-19T02:18:12.414Z,9.00
2023-03-19T02:20:50.693Z,9.00
2023-03-19T02:23:27.840Z,9.00
2023-03-19T02:26:06.216Z,9.00
2023-03-19T02:28:37.693Z,9.00
2023-03-19T02:31:06.201Z,9.10
2023-03-19T02:33:34.312Z,9.10
2023-03-19T02:36:04.385Z,9.00
2023-03-19T02:38:35.372Z,9.10
2023-03-19T02:41:07.306Z,9.00
2023-03-19T02:43:38.029Z,9.00
2023-03-19T02:46:09.091Z,8.90
2023-03-19T02:48:37.577Z,9.00
2023-03-19T02:51:06.169Z,9.20
2023-03-19T02:53:34.898Z,9.10
2023-03-19T02:56:04.555Z,9.10
2023-03-19T02:58:32.622Z,9.10
2023-03-19T03:01:00.768Z,9.30
2023-03-19T03:03:29.004Z,9.20
2023-03-19T03:05:57.404Z,9.20
2023-03-19T03:08:26.227Z,9.20
2023-03-19T03:10:54.429Z,9.20
2023-03-19T03:13:23.872Z,9.20
2023-03-19T03:15:53.468Z,9.30
2023-03-19T03:18:21.591Z,9.30
2023-03-19T03:20:49.992Z,9.40
2023-03-19T03:23:18.107Z,9.30
2023-03-19T03:25:46.454Z,9.30
2023-03-19T03:28:14.569Z,9.30
2023-03-19T03:30:43.978Z,9.40
2023-03-19T03:33:12.171Z,9.40
2023-03-19T03:35:40.531Z,9.40
2023-03-19T03:38:08.754Z,9.30
2023-03-19T03:40:37.439Z,9.30
2023-03-19T03:43:05.616Z,9.40
2023-03-19T03:45:36.351Z,9.40
2023-03-19T03:48:06.378Z,9.30
2023-03-19T03:50:34.642Z,9.30
2023-03-19T03:53:08.633Z,9.40
2023-03-19T03:55:37.296Z,9.30
2023-03-19T03:58:05.750Z,9.30
2023-03-19T04:00:34.107Z,9.30
2023-03-19T04:03:02.989Z,9.40
2023-03-19T04:05:32.482Z,9.30
2023-03-19T04:08:00.667Z,9.30
2023-03-19T04:10:28.842Z,9.30
2023-03-19T04:12:56.897Z,9.30
2023-03-19T04:15:25.309Z,9.30
2023-03-19T04:17:56.197Z,9.30
2023-03-19T04:20:25.491Z,9.30
2023-03-19T04:22:54.940Z,9.30
2023-03-19T04:25:23.431Z,9.30
2023-03-19T04:27:51.455Z,9.20
2023-03-19T04:30:20.023Z,9.30
2023-03-19T04:32:48.572Z,9.30
2023-03-19T04:35:18.143Z,9.20
2023-03-19T04:37:48.632Z,9.20
2023-03-19T04:40:19.937Z,9.30
2023-03-19T04:42:48.847Z,9.30
2023-03-19T04:45:29.670Z,9.40
2023-03-19T04:47:58.200Z,9.40
2023-03-19T04:50:26.358Z,9.40
2023-03-19T04:52:55.655Z,9.40
2023-03-19T04:55:26.532Z,9.50
2023-03-19T04:58:19.060Z,9.40
2023-03-19T05:00:53.629Z,9.40
2023-03-19T05:03:27.667Z,9.40
2023-03-19T05:05:55.793Z,9.40
2023-03-19T05:08:24.017Z,9.30
2023-03-19T05:10:53.614Z,9.30
2023-03-19T05:13:21.874Z,9.30
2023-03-19T05:15:55.052Z,9.30
2023-03-19T05:18:23.788Z,9.20
2023-03-19T05:20:51.988Z,9.20
2023-03-19T05:23:23.918Z,9.20
2023-03-19T05:26:01.084Z,9.20
2023-03-19T05:28:47.703Z,9.20
2023-03-19T05:31:19.098Z,9.20
2023-03-19T05:33:51.663Z,9.10
2023-03-19T05:36:19.982Z,9.20
2023-03-19T05:39:06.018Z,9.20
2023-03-19T05:41:39.068Z,9.20
2023-03-19T05:44:08.937Z,9.20
2023-03-19T05:46:59.555Z,9.20
2023-03-19T05:49:31.350Z,9.50
2023-03-19T05:52:00.475Z,9.30
2023-03-19T05:54:28.475Z,9.20
2023-03-19T05:57:06.504Z,9.20
2023-03-19T06:00:12.110Z,9.20
2023-03-19T06:02:40.560Z,9.30
2023-03-19T06:05:37.228Z,9.30
2023-03-19T06:08:14.234Z,9.20
2023-03-19T06:10:58.405Z,9.20
2023-03-19T06:13:28.784Z,9.20
2023-03-19T06:16:01.268Z,9.20
2023-03-19T06:18:35.610Z,9.20
2023-03-19T06:21:09.262Z,9.20
2023-03-19T06:23:37.322Z,9.30
2023-03-19T06:26:06.933Z,9.20
2023-03-19T06:28:46.924Z,9.30
2023-03-19T06:31:15.752Z,9.40
2023-03-19T06:33:59.921Z,9.30
2023-03-19T06:36:35.140Z,9.40
2023-03-19T06:39:04.813Z,9.40
2023-03-19T06:41:32.898Z,9.30
2023-03-19T06:44:13.542Z,9.70
2023-03-19T06:46:41.685Z,9.70
2023-03-19T06:49:09.721Z,9.80
2023-03-19T06:51:37.893Z,9.80
2023-03-19T06:54:05.972Z,9.70
2023-03-19T06:56:34.075Z,9.80
2023-03-19T06:59:02.258Z,9.80
2023-03-19T07:01:32.047Z,9.80
2023-03-19T07:04:00.122Z,9.70
2023-03-19T07:06:28.202Z,9.70
2023-03-19T07:08:56.281Z,9.70
2023-03-19T07:11:24.454Z,9.70
2023-03-19T07:13:52.552Z,9.70
2023-03-19T07:16:20.606Z,9.80
2023-03-19T07:18:50.032Z,9.90
2023-03-19T07:21:18.088Z,9.90
2023-03-19T07:23:46.905Z,10.00
2023-03-19T07:26:14.982Z,10.10
2023-03-19T07:28:43.097Z,10.20
2023-03-19T07:31:11.193Z,10.40
2023-03-19T07:33:39.496Z,10.60
2023-03-19T07:36:10.067Z,10.80
2023-03-19T07:38:38.117Z,11.10
2023-03-19T07:41:06.370Z,11.60
2023-03-19T07:43:34.645Z,11.70
2023-03-19T07:46:03.079Z,11.70
2023-03-19T07:48:31.753Z,11.70
2023-03-19T07:50:59.740Z,11.60
2023-03-19T07:53:29.213Z,11.50
2023-03-19T07:55:57.237Z,11.50
2023-03-19T07:58:26.342Z,11.50
2023-03-19T08:00:54.621Z,11.60
2023-03-19T08:03:22.686Z,12.00
2023-03-19T08:05:51.336Z,12.40
2023-03-19T08:08:19.392Z,12.70
2023-03-19T08:10:50.815Z,12.90
2023-03-19T08:13:19.149Z,13.10
2023-03-19T08:15:51.038Z,13.30
2023-03-19T08:18:19.103Z,13.30
2023-03-19T08:20:47.170Z,13.40
2023-03-19T08:23:15.504Z,13.70
2023-03-19T08:25:43.914Z,13.70
2023-03-19T08:28:13.446Z,13.80
2023-03-19T08:30:41.568Z,14.20
2023-03-19T08:33:09.770Z,14.40
2023-03-19T08:35:38.030Z,14.70
2023-03-19T08:38:06.196Z,15.00
2023-03-19T08:40:35.009Z,15.50
2023-03-19T08:43:03.997Z,15.60
2023-03-19T08:45:33.723Z,15.60
2023-03-19T08:48:01.815Z,15.40
2023-03-19T08:50:29.928Z,15.30
2023-03-19T08:52:57.995Z,15.10
2023-03-19T08:55:26.070Z,15.10
2023-03-19T08:57:54.125Z,15.20
2023-03-19T09:00:23.340Z,14.90
2023-03-19T09:02:52.747Z,14.90
2023-03-19T09:05:22.401Z,14.80
2023-03-19T09:07:52.013Z,14.70
2023-03-19T09:10:20.085Z,14.60
2023-03-19T09:12:48.668Z,14.50
2023-03-19T09:15:17.059Z,14.30
2023-03-19T09:17:45.260Z,14.30
2023-03-19T09:20:14.736Z,14.30
2023-03-19T09:22:42.868Z,14.20
2023-03-19T09:25:11.365Z,14.20
2023-03-19T09:27:39.619Z,14.30
2023-03-19T09:30:09.940Z,14.40
2023-03-19T09:32:38.186Z,14.50
2023-03-19T09:35:07.293Z,14.50
2023-03-19T09:37:36.696Z,14.50
2023-03-19T09:40:05.717Z,14.60
2023-03-19T09:42:50.047Z,14.70
2023-03-19T09:45:21.052Z,14.90
2023-03-19T09:47:53.191Z,14.90
2023-03-19T09:50:24.012Z,14.90
2023-03-19T09:52:59.781Z,14.80
2023-03-19T09:55:37.174Z,14.60
2023-03-19T09:58:15.579Z,14.50
2023-03-19T10:00:45.538Z,14.40
2023-03-19T10:03:28.941Z,14.40
2023-03-19T10:06:08.639Z,14.60
2023-03-19T10:08:56.154Z,14.80
2023-03-19T10:11:36.518Z,15.10
2023-03-19T10:14:18.199Z,15.50
2023-03-19T10:16:50.105Z,15.90
2023-03-19T10:19:22.361Z,16.10
2023-03-19T10:21:57.172Z,16.20
2023-03-19T10:24:33.300Z,16.40
2023-03-19T10:27:06.612Z,16.60
2023-03-19T10:29:35.821Z,17.00
2023-03-19T10:32:21.000Z,17.50
2023-03-19T10:34:51.077Z,18.00
2023-03-19T10:37:21.758Z,17.80
2023-03-19T10:39:53.667Z,17.50
2023-03-19T10:42:36.641Z,16.90
2023-03-19T10:45:11.287Z,16.70
2023-03-19T10:47:41.127Z,16.20
2023-03-19T10:50:16.023Z,16.10
2023-03-19T10:52:44.629Z,15.90
2023-03-19T10:55:18.102Z,15.80
2023-03-19T10:57:51.178Z,15.80
2023-03-19T11:00:24.415Z,15.80
2023-03-19T11:02:54.435Z,15.80
2023-03-19T11:05:32.186Z,15.80
2023-03-19T11:08:03.087Z,15.70
2023-03-19T11:10:36.056Z,15.60
2023-03-19T11:13:07.269Z,15.70
2023-03-19T11:15:38.243Z,15.80
2023-03-19T11:18:18.610Z,15.90
2023-03-19T11:20:54.486Z,16.10
2023-03-19T11:23:23.956Z,16.10
2023-03-19T11:25:55.528Z,16.30
2023-03-19T11:28:26.885Z,16.30
2023-03-19T11:31:03.589Z,16.30
2023-03-19T11:33:47.459Z,16.20
2023-03-19T11:36:22.408Z,16.30
2023-03-19T11:39:04.649Z,16.20
2023-03-19T11:41:48.716Z,16.20
2023-03-19T11:44:21.769Z,16.20
2023-03-19T11:46:55.755Z,16.00
2023-03-19T11:49:44.800Z,16.00
2023-03-19T11:52:19.454Z,15.90
2023-03-19T11:55:02.790Z,16.00
2023-03-19T11:57:46.487Z,16.00
2023-03-19T12:00:28.370Z,16.00
2023-03-19T12:03:14.622Z,16.00
2023-03-19T12:05:51.901Z,15.90
2023-03-19T12:08:39.194Z,15.80
2023-03-19T12:11:18.688Z,15.70
2023-03-19T12:14:03.681Z,15.50
2023-03-19T12:16:50.573Z,15.50
2023-03-19T12:19:45.918Z,15.60
2023-03-19T12:22:24.709Z,15.80
2023-03-19T12:25:04.413Z,15.90
2023-03-19T12:27:36.496Z,16.00
2023-03-19T12:30:19.036Z,16.00
2023-03-19T12:33:10.641Z,16.00
2023-03-19T12:35:40.821Z,15.90
2023-03-19T12:38:14.296Z,15.90
2023-03-19T12:40:51.648Z,15.80
2023-03-19T12:43:24.993Z,15.70
2023-03-19T12:45:59.564Z,15.70
2023-03-19T12:48:31.349Z,15.70
2023-03-19T12:51:06.492Z,15.80
2023-03-19T12:53:44.605Z,15.70
2023-03-19T12:56:20.736Z,15.70
2023-03-19T12:58:58.648Z,15.80
2023-03-19T13:01:35.170Z,15.90
2023-03-19T13:04:10.159Z,15.80
2023-03-19T13:06:42.588Z,15.80
2023-03-19T13:09:17.436Z,15.70
2023-03-19T13:11:50.915Z,15.60
2023-03-19T13:14:23.764Z,15.40
2023-03-19T13:17:02.141Z,15.20
2023-03-19T13:19:35.664Z,15.10
2023-03-19T13:22:10.549Z,15.00
2023-03-19T13:24:41.069Z,14.90
2023-03-19T13:27:14.614Z,14.70
2023-03-19T13:30:03.257Z,14.60
2023-03-19T13:32:41.445Z,14.60
2023-03-19T13:35:29.188Z,14.50
2023-03-19T13:38:00.247Z,14.50
2023-03-19T13:40:44.253Z,14.50
2023-03-19T13:43:43.013Z,14.40
2023-03-19T13:46:40.643Z,14.40
2023-03-19T13:49:33.770Z,14.40
2023-03-19T13:52:18.232Z,14.50
2023-03-19T13:54:47.675Z,14.50
2023-03-19T13:57:35.550Z,14.60
2023-03-19T14:00:40.869Z,14.60
2023-03-19T14:03:21.296Z,14.60
2023-03-19T14:05:53.740Z,14.60
2023-03-19T14:08:24.435Z,14.70
2023-03-19T14:10:55.130Z,14.70
2023-03-19T14:13:31.886Z,14.70
2023-03-19T14:16:07.375Z,14.80
2023-03-19T14:18:41.541Z,14.80
2023-03-19T14:21:16.577Z,14.80
2023-03-19T14:23:54.959Z,14.70
2023-03-19T14:26:26.026Z,14.70
2023-03-19T14:28:58.542Z,14.70
2023-03-19T14:31:42.605Z,14.80
2023-03-19T14:34:22.692Z,14.80
2023-03-19T14:36:59.248Z,14.70
2023-03-19T14:39:31.730Z,14.70
2023-03-19T14:42:10.726Z,14.70
2023-03-19T14:45:23.823Z,14.80
2023-03-19T14:48:18.156Z,14.70
2023-03-19T14:51:21.087Z,14.50
2023-03-19T14:53:54.790Z,14.40
2023-03-19T14:56:27.510Z,14.40
2023-03-19T14:58:57.824Z,14.50
2023-03-19T15:01:28.020Z,14.60
2023-03-19T15:04:03.440Z,14.50
2023-03-19T15:06:35.551Z,14.70
2023-03-19T15:09:08.682Z,14.70
2023-03-19T15:12:11.379Z,14.80
2023-03-19T15:14:57.309Z,15.00
2023-03-19T15:17:28.855Z,15.00
2023-03-19T15:20:00.586Z,15.10
2023-03-19T15:22:32.396Z,15.00
2023-03-19T15:25:09.026Z,14.90
2023-03-19T15:27:37.580Z,14.80
2023-03-19T15:30:22.967Z,14.60
2023-03-19T15:33:04.542Z,14.60
2023-03-19T15:35:37.611Z,14.60
2023-03-19T15:38:10.539Z,14.50
2023-03-19T15:40:42.671Z,14.50
2023-03-19T15:43:13.340Z,14.50
2023-03-19T15:45:47.092Z,14.40
2023-03-19T15:48:21.516Z,14.40
2023-03-19T15:50:53.404Z,14.40
2023-03-19T15:53:24.578Z,14.40
2023-03-19T15:55:59.030Z,14.30
2023-03-19T15:58:32.036Z,14.30
2023-03-19T16:01:02.120Z,14.20
2023-03-19T16:03:41.169Z,14.20
2023-03-19T16:06:18.880Z,14.20
2023-03-19T16:08:50.497Z,14.10
2023-03-19T16:11:30.850Z,14.10
2023-03-19T16:14:00.982Z,14.10
2023-03-19T16:16:34.371Z,14.10
2023-03-19T16:19:03.141Z,14.20
2023-03-19T16:21:40.611Z,14.20
2023-03-19T16:24:16.477Z,14.20
2023-03-19T16:26:49.160Z,14.20
2023-03-19T16:29:21.093Z,14.20
2023-03-19T16:31:52.867Z,14.20
2023-03-19T16:34:32.630Z,14.20
2023-03-19T16:37:01.575Z,14.20
2023-03-19T16:39:35.755Z,14.20
2023-03-19T16:42:29.913Z,14.30
2023-03-19T16:44:59.505Z,14.50
2023-03-19T16:47:27.843Z,14.40
2023-03-19T16:49:56.385Z,14.30
2023-03-19T16:52:26.152Z,14.20
2023-03-19T16:54:56.450Z,14.20
2023-03-19T16:57:26.360Z,14.20
2023-03-19T16:59:55.478Z,14.20
2023-03-19T17:02:24.246Z,14.30
2023-03-19T17:04:52.523Z,14.30
2023-03-19T17:07:21.109Z,14.40
2023-03-19T17:09:49.765Z,14.30
2023-03-19T17:12:18.754Z,14.30
2023-03-19T17:14:53.285Z,14.30
2023-03-19T17:17:22.182Z,14.30
2023-03-19T17:19:51.433Z,14.30
2023-03-19T17:22:20.939Z,14.20
2023-03-19T17:24:49.819Z,14.00
2023-03-19T17:27:20.708Z,14.00
2023-03-19T17:29:51.019Z,14.10
2023-03-19T17:32:20.616Z,14.20
2023-03-19T17:34:49.479Z,14.30
2023-03-19T17:37:17.826Z,14.30
2023-03-19T17:39:46.453Z,14.30
2023-03-19T17:42:25.003Z,14.30
2023-03-19T17:44:56.796Z,14.30
2023-03-19T17:47:25.267Z,14.30
2023-03-19T17:49:54.364Z,14.20
2023-03-19T17:52:23.607Z,14.10
2023-03-19T17:54:51.863Z,14.00
2023-03-19T17:57:20.176Z,14.00
2023-03-19T17:59:48.926Z,13.90
2023-03-19T18:02:26.363Z,13.70
2023-03-19T18:04:54.688Z,13.60
2023-03-19T18:07:23.500Z,13.50
2023-03-19T18:09:57.749Z,13.40
2023-03-19T18:12:26.143Z,13.30
2023-03-19T18:14:57.298Z,13.30
2023-03-19T18:17:27.482Z,13.30
2023-03-19T18:19:55.732Z,13.10
2023-03-19T18:22:24.280Z,12.50
2023-03-19T18:24:52.478Z,12.00
2023-03-19T18:27:24.289Z,11.60
2023-03-19T18:29:52.629Z,11.40
2023-03-19T18:32:31.190Z,11.20
2023-03-19T18:35:00.110Z,11.00
2023-03-19T18:37:36.844Z,10.80
2023-03-19T18:40:06.063Z,10.50
2023-03-19T18:42:34.232Z,10.30
2023-03-19T18:45:02.364Z,10.20
2023-03-19T18:47:32.445Z,10.00
2023-03-19T18:50:01.142Z,9.90
2023-03-19T18:52:32.613Z,9.90
2023-03-19T18:55:01.664Z,9.70
2023-03-19T18:57:30.663Z,9.70
2023-03-19T19:00:00.411Z,9.60
2023-03-19T19:02:35.752Z,9.60
2023-03-19T19:05:04.662Z,9.60
2023-03-19T19:07:35.548Z,9.50
2023-03-19T19:10:07.621Z,9.50
2023-03-19T19:12:38.634Z,9.50
2023-03-19T19:15:19.686Z,9.40
2023-03-19T19:17:49.400Z,9.30
2023-03-19T19:20:19.266Z,9.30
2023-03-19T19:22:48.741Z,9.30
2023-03-19T19:25:19.493Z,9.30
2023-03-19T19:27:50.655Z,9.30
2023-03-19T19:30:21.042Z,9.30
2023-03-19T19:32:51.339Z,9.30
2023-03-19T19:35:23.068Z,9.30
2023-03-19T19:37:53.421Z,9.30
2023-03-19T19:40:28.678Z,9.30
2023-03-19T19:42:57.770Z,9.40
2023-03-19T19:45:33.454Z,9.40
2023-03-19T19:48:03.606Z,9.40
2023-03-19T19:50:32.151Z,9.40
2023-03-19T19:53:00.823Z,9.30
2023-03-19T19:55:31.387Z,9.30
2023-03-19T19:58:00.934Z,9.30
2023-03-19T20:00:30.892Z,9.20
2023-03-19T20:03:00.433Z,9.40
2023-03-19T20:05:32.290Z,9.40
2023-03-19T20:08:02.698Z,9.50
2023-03-19T20:10:31.909Z,9.50
2023-03-19T20:13:02.311Z,9.40
2023-03-19T20:15:34.172Z,9.40
2023-03-19T20:18:03.331Z,9.40
2023-03-19T20:20:34.489Z,9.40
2023-03-19T20:23:03.910Z,9.40
2023-03-19T20:25:33.939Z,9.50
2023-03-19T20:28:03.774Z,9.50
2023-03-19T20:30:34.478Z,9.50
2023-03-19T20:33:03.664Z,9.70
2023-03-19T20:35:35.753Z,9.70
2023-03-19T20:38:10.248Z,9.70
2023-03-19T20:40:40.768Z,9.70
2023-03-19T20:43:22.141Z,9.70
2023-03-19T20:45:51.354Z,9.90
2023-03-19T20:48:20.943Z,10.00
2023-03-19T20:50:50.870Z,10.00
2023-03-19T20:53:19.594Z,9.90
2023-03-19T20:55:54.589Z,10.00
2023-03-19T20:58:27.857Z,9.80
2023-03-19T21:00:57.865Z,9.70
2023-03-19T21:03:31.956Z,9.70
2023-03-19T21:06:03.867Z,9.60
2023-03-19T21:08:34.977Z,9.50
2023-03-19T21:11:03.677Z,9.50
2023-03-19T21:13:33.384Z,9.60
2023-03-19T21:16:02.043Z,9.50
2023-03-19T21:18:30.279Z,9.50
2023-03-19T21:20:59.690Z,9.60
2023-03-19T21:23:34.446Z,9.70
2023-03-19T21:26:08.476Z,9.80
2023-03-19T21:28:38.543Z,9.80
2023-03-19T21:31:07.840Z,9.90
2023-03-19T21:33:37.194Z,9.90
2023-03-19T21:36:08.696Z,9.90
2023-03-19T21:38:38.324Z,10.00
2023-03-19T21:41:10.598Z,9.90
2023-03-19T21:43:43.779Z,9.90
2023-03-19T21:46:24.123Z,9.90
2023-03-19T21:48:54.412Z,9.80
2023-03-19T21:51:25.050Z,9.90
2023-03-19T21:53:55.323Z,9.80
2023-03-19T21:56:25.702Z,9.90
2023-03-19T21:58:54.827Z,9.90
2023-03-19T22:01:25.464Z,9.90
2023-03-19T22:03:55.042Z,9.70
2023-03-19T22:06:24.248Z,9.70
2023-03-19T22:08:54.981Z,9.80
2023-03-19T22:11:28.018Z,9.80
2023-03-19T22:13:59.521Z,9.70
2023-03-19T22:16:29.347Z,9.70
2023-03-19T22:18:57.763Z,9.80
2023-03-19T22:21:26.696Z,9.70
2023-03-19T22:23:56.574Z,9.90
2023-03-19T22:26:33.340Z,9.90
2023-03-19T22:29:05.059Z,10.10
2023-03-19T22:31:34.601Z,10.00
2023-03-19T22:34:03.059Z,10.00
2023-03-19T22:36:34.592Z,10.00
2023-03-19T22:39:04.570Z,9.80
2023-03-19T22:41:35.373Z,9.80
2023-03-19T22:44:06.690Z,9.70
2023-03-19T22:46:35.497Z,9.70
2023-03-19T22:49:09.184Z,9.80
2023-03-19T22:51:37.618Z,9.80
2023-03-19T22:54:08.025Z,9.70
2023-03-19T22:56:36.297Z,9.80
2023-03-19T22:59:04.811Z,9.90
2023-03-19T23:01:37.485Z,9.70
2023-03-19T23:04:19.450Z,9.70
2023-03-19T23:06:48.371Z,9.70
2023-03-19T23:09:20.634Z,9.60
2023-03-19T23:11:49.281Z,9.50
2023-03-19T23:14:28.446Z,9.50
2023-03-19T23:16:59.930Z,9.50
2023-03-19T23:19:34.085Z,9.70
2023-03-19T23:22:12.754Z,9.80
2023-03-19T23:24:44.867Z,9.60
2023-03-19T23:27:24.015Z,9.60
2023-03-19T23:29:53.079Z,9.60
2023-03-19T23:32:24.462Z,9.60
2023-03-19T23:35:00.552Z,9.50
2023-03-19T23:37:30.104Z,9.50
2023-03-19T23:39:59.948Z,9.60
2023-03-19T23:42:30.579Z,9.60
2023-03-19T23:45:02.053Z,9.60
2023-03-19T23:47:31.310Z,9.50
2023-03-19T23:49:59.838Z,9.50
2023-03-19T23:52:28.392Z,9.50
2023-03-19T23:54:57.011Z,9.60
2023-03-19T23:57:28.336Z,9.60
2023-03-19T23:59:57.015Z,9.60
